createdAt,value
2023-02-07T00:00:21.404Z,9.77
2023-02-07T00:02:49.263Z,9.50
2023-02-07T00:05:17.907Z,10.07
2023-02-07T00:07:44.464Z,10.00
2023-02-07T00:10:11.136Z,11.65
2023-02-07T00:12:37.797Z,11.60
2023-02-07T00:15:04.716Z,12.65
2023-02-07T00:17:31.457Z,12.13
2023-02-07T00:19:58.050Z,11.43
2023-02-07T00:22:24.685Z,12.40
2023-02-07T00:24:51.219Z,12.90
2023-02-07T00:27:17.925Z,12.60
2023-02-07T00:29:45.151Z,11.82
2023-02-07T00:32:11.791Z,11.57
2023-02-07T00:34:38.442Z,12.10
2023-02-07T00:37:05.616Z,12.27
2023-02-07T00:39:32.344Z,12.93
2023-02-07T00:41:59.022Z,13.30
2023-02-07T00:44:25.580Z,11.82
2023-02-07T00:46:52.225Z,11.20
2023-02-07T00:49:18.852Z,11.57
2023-02-07T00:51:45.407Z,12.23
2023-02-07T00:54:13.279Z,10.63
2023-02-07T00:56:39.946Z,12.20
2023-02-07T00:59:07.072Z,11.30
2023-02-07T01:01:35.508Z,12.45
2023-02-07T01:04:02.095Z,11.93
2023-02-07T01:06:33.470Z,11.05
2023-02-07T01:09:02.006Z,11.95
2023-02-07T01:11:29.520Z,12.50
2023-02-07T01:13:59.319Z,11.63
2023-02-07T01:16:29.254Z,11.27
2023-02-07T01:18:56.810Z,10.43
2023-02-07T01:21:26.341Z,10.27
2023-02-07T01:23:56.692Z,10.60
2023-02-07T01:26:24.922Z,10.80
2023-02-07T01:28:51.654Z,10.93
2023-02-07T01:31:18.480Z,11.15
2023-02-07T01:33:45.126Z,10.60
2023-02-07T01:36:15.024Z,11.75
2023-02-07T01:38:42.864Z,11.43
2023-02-07T01:41:10.668Z,11.48
2023-02-07T01:43:58.288Z,10.80
2023-02-07T01:46:25.616Z,11.23
2023-02-07T01:48:55.537Z,11.45
2023-02-07T01:51:23.432Z,10.85
2023-02-07T01:53:53.652Z,10.75
2023-02-07T01:56:31.278Z,12.43
2023-02-07T01:59:02.317Z,13.60
2023-02-07T02:01:28.899Z,10.55
2023-02-07T02:03:56.486Z,9.25
2023-02-07T02:06:27.322Z,9.55
2023-02-07T02:08:57.991Z,9.38
2023-02-07T02:12:06.124Z,11.60
2023-02-07T02:14:49.708Z,10.07
2023-02-07T02:17:25.111Z,10.52
2023-02-07T02:20:28.617Z,7.55
2023-02-07T02:23:09.350Z,6.85
2023-02-07T02:25:41.587Z,8.80
2023-02-07T02:28:33.365Z,7.60
2023-02-07T02:31:26.659Z,7.75
2023-02-07T02:34:13.631Z,8.93
2023-02-07T02:36:52.591Z,10.10
2023-02-07T02:39:46.479Z,12.05
2023-02-07T02:42:36.006Z,11.73
2023-02-07T02:45:04.572Z,10.50
2023-02-07T02:47:32.494Z,11.73
2023-02-07T02:50:00.178Z,13.30
2023-02-07T02:52:44.592Z,12.80
2023-02-07T02:55:18.071Z,14.73
2023-02-07T02:57:52.315Z,12.38
2023-02-07T03:00:30.964Z,12.43
2023-02-07T03:03:31.735Z,12.65
2023-02-07T03:06:08.311Z,11.35
2023-02-07T03:08:54.077Z,11.95
2023-02-07T03:11:23.762Z,12.52
2023-02-07T03:14:12.885Z,12.70
2023-02-07T03:16:48.415Z,12.18
2023-02-07T03:19:24.028Z,13.52
2023-02-07T03:22:10.362Z,13.30
2023-02-07T03:24:51.491Z,13.38
2023-02-07T03:27:21.403Z,13.27
2023-02-07T03:29:51.946Z,12.40
2023-02-07T03:32:20.767Z,12.25
2023-02-07T03:34:56.115Z,12.80
2023-02-07T03:39:56.585Z,12.07
2023-02-07T03:42:37.160Z,11.95
2023-02-07T03:45:07.822Z,12.35
2023-02-07T03:47:34.459Z,13.18
2023-02-07T03:50:01.000Z,12.77
2023-02-07T03:52:27.542Z,12.85
2023-02-07T03:54:54.062Z,12.18
2023-02-07T03:57:20.719Z,12.50
2023-02-07T03:59:47.287Z,12.07
2023-02-07T04:02:13.837Z,13.30
2023-02-07T04:04:40.551Z,11.50
2023-02-07T04:07:07.234Z,12.10
2023-02-07T04:09:33.776Z,11.60
2023-02-07T04:12:00.300Z,12.32
2023-02-07T04:14:27.055Z,11.60
2023-02-07T04:16:53.570Z,11.13
2023-02-07T04:19:20.140Z,12.30
2023-02-07T04:21:47.273Z,12.50
2023-02-07T04:24:14.268Z,12.65
2023-02-07T04:26:40.792Z,13.60
2023-02-07T04:29:07.342Z,15.05
2023-02-07T04:31:34.069Z,14.75
2023-02-07T04:34:00.666Z,15.45
2023-02-07T04:36:29.842Z,17.23
2023-02-07T04:38:56.404Z,17.02
2023-02-07T04:41:23.495Z,16.55
2023-02-07T04:43:50.534Z,18.02
2023-02-07T04:46:17.068Z,19.33
2023-02-07T04:48:43.615Z,19.70
2023-02-07T04:51:10.244Z,19.83
2023-02-07T04:53:36.750Z,21.27
2023-02-07T04:56:03.353Z,21.52
2023-02-07T04:58:29.833Z,21.23
2023-02-07T05:00:56.340Z,21.30
2023-02-07T05:03:23.024Z,22.67
2023-02-07T05:05:49.781Z,23.15
2023-02-07T05:08:16.313Z,22.08
2023-02-07T05:10:42.873Z,20.65
2023-02-07T05:13:09.448Z,19.92
2023-02-07T05:15:38.269Z,18.73
2023-02-07T05:18:05.731Z,19.33
2023-02-07T05:20:32.540Z,20.25
2023-02-07T05:22:59.145Z,20.08
2023-02-07T05:25:25.642Z,17.75
2023-02-07T05:27:52.212Z,17.65
2023-02-07T05:30:19.253Z,17.10
2023-02-07T05:33:03.804Z,17.05
2023-02-07T05:35:38.904Z,17.02
2023-02-07T05:38:08.724Z,17.15
2023-02-07T05:40:36.998Z,16.67
2023-02-07T05:43:03.631Z,19.10
2023-02-07T05:45:30.409Z,17.23
2023-02-07T05:47:57.083Z,17.08
2023-02-07T05:50:24.155Z,17.30
2023-02-07T05:53:03.779Z,16.88
2023-02-07T05:55:30.446Z,16.63
2023-02-07T05:57:57.417Z,16.70
2023-02-07T06:00:24.557Z,16.85
2023-02-07T06:02:51.132Z,17.30
2023-02-07T06:05:20.388Z,19.15
2023-02-07T06:07:47.369Z,18.40
2023-02-07T06:10:14.857Z,16.92
2023-02-07T06:12:41.740Z,17.33
2023-02-07T06:15:08.957Z,16.17
2023-02-07T06:17:35.558Z,17.27
2023-02-07T06:20:02.126Z,17.70
2023-02-07T06:22:28.727Z,15.98
2023-02-07T06:24:55.255Z,16.20
2023-02-07T06:27:21.947Z,16.23
2023-02-07T06:29:48.480Z,16.42
2023-02-07T06:32:16.784Z,16.08
2023-02-07T06:34:43.253Z,14.75
2023-02-07T06:37:09.884Z,14.35
2023-02-07T06:39:36.450Z,15.52
2023-02-07T06:42:03.268Z,16.73
2023-02-07T06:44:29.794Z,15.38
2023-02-07T06:46:56.387Z,15.93
2023-02-07T06:49:22.882Z,15.93
2023-02-07T06:51:50.020Z,14.80
2023-02-07T06:54:17.022Z,15.13
2023-02-07T06:56:43.615Z,15.40
2023-02-07T06:59:10.369Z,16.45
2023-02-07T07:01:36.962Z,16.55
2023-02-07T07:04:03.844Z,15.65
2023-02-07T07:06:30.378Z,17.10
2023-02-07T07:08:56.906Z,17.15
2023-02-07T07:11:23.600Z,15.85
2023-02-07T07:13:50.197Z,18.50
2023-02-07T07:16:16.948Z,16.38
2023-02-07T07:18:43.826Z,17.95
2023-02-07T07:21:10.568Z,17.17
2023-02-07T07:23:37.260Z,16.02
2023-02-07T07:26:04.041Z,16.45
2023-02-07T07:28:30.770Z,17.13
2023-02-07T07:31:05.870Z,15.65
2023-02-07T07:33:33.318Z,15.10
2023-02-07T07:36:01.757Z,15.43
2023-02-07T07:38:28.500Z,15.80
2023-02-07T07:40:55.190Z,15.73
2023-02-07T07:43:21.959Z,15.38
2023-02-07T07:45:57.264Z,16.25
2023-02-07T07:48:24.876Z,15.05
2023-02-07T07:50:51.996Z,16.48
2023-02-07T07:53:19.472Z,15.85
2023-02-07T07:55:54.962Z,15.77
2023-02-07T07:58:22.837Z,16.05
2023-02-07T08:00:50.471Z,15.80
2023-02-07T08:03:19.374Z,16.52
2023-02-07T08:05:46.377Z,15.90
2023-02-07T08:08:14.654Z,16.05
2023-02-07T08:10:41.884Z,15.68
2023-02-07T08:13:09.170Z,15.43
2023-02-07T08:15:36.172Z,16.13
2023-02-07T08:18:03.185Z,15.98
2023-02-07T08:20:29.731Z,16.10
2023-02-07T08:22:58.154Z,16.70
2023-02-07T08:25:25.628Z,15.90
2023-02-07T08:27:52.891Z,17.05
2023-02-07T08:30:20.208Z,17.48
2023-02-07T08:32:47.012Z,17.38
2023-02-07T08:35:13.905Z,16.48
2023-02-07T08:37:40.588Z,15.85
2023-02-07T08:40:08.059Z,16.58
2023-02-07T08:42:34.660Z,17.08
2023-02-07T08:45:01.297Z,16.10
2023-02-07T08:47:27.954Z,17.05
2023-02-07T08:49:54.501Z,18.10
2023-02-07T08:52:21.086Z,18.85
2023-02-07T08:54:48.568Z,17.63
2023-02-07T08:57:15.783Z,16.35
2023-02-07T08:59:42.369Z,19.02
2023-02-07T09:02:11.732Z,18.30
2023-02-07T09:04:38.376Z,17.88
2023-02-07T09:07:05.090Z,17.95
2023-02-07T09:09:32.950Z,17.90
2023-02-07T09:11:59.527Z,17.42
2023-02-07T09:14:26.159Z,17.10
2023-02-07T09:16:52.823Z,17.75
2023-02-07T09:19:19.552Z,17.17
2023-02-07T09:21:46.404Z,17.30
2023-02-07T09:24:13.035Z,17.30
2023-02-07T09:26:40.072Z,16.38
2023-02-07T09:29:07.779Z,17.05
2023-02-07T09:31:34.665Z,15.77
2023-02-07T09:34:02.832Z,16.67
2023-02-07T09:36:30.691Z,16.23
2023-02-07T09:38:58.284Z,15.68
2023-02-07T09:41:39.494Z,16.80
2023-02-07T09:44:16.730Z,16.30
2023-02-07T09:47:01.863Z,15.73
2023-02-07T09:49:38.307Z,16.23
2023-02-07T09:52:11.677Z,16.65
2023-02-07T09:54:43.763Z,15.32
2023-02-07T09:57:16.400Z,15.68
2023-02-07T09:59:49.659Z,16.30
2023-02-07T10:02:34.279Z,15.25
2023-02-07T10:05:07.210Z,15.95
2023-02-07T10:07:37.871Z,16.05
2023-02-07T10:10:04.979Z,16.55
2023-02-07T10:12:47.505Z,14.73
2023-02-07T10:15:38.483Z,15.88
2023-02-07T10:18:30.546Z,15.02
2023-02-07T10:21:09.696Z,15.25
2023-02-07T10:24:05.664Z,15.38
2023-02-07T10:27:21.656Z,15.20
2023-02-07T10:29:59.268Z,15.10
2023-02-07T10:32:28.324Z,14.65
2023-02-07T10:35:03.829Z,15.05
2023-02-07T10:40:08.302Z,13.85
2023-02-07T10:42:37.790Z,12.65
2023-02-07T10:45:05.260Z,13.45
2023-02-07T10:47:36.175Z,13.73
2023-02-07T10:50:12.040Z,13.82
2023-02-07T10:52:47.305Z,13.57
2023-02-07T10:55:19.439Z,13.65
2023-02-07T10:58:01.455Z,14.52
2023-02-07T11:00:33.844Z,13.75
2023-02-07T11:03:20.990Z,13.55
2023-02-07T11:06:04.607Z,14.48
2023-02-07T11:08:33.884Z,13.07
2023-02-07T11:11:19.480Z,13.55
2023-02-07T11:13:49.887Z,13.60
2023-02-07T11:16:18.397Z,12.38
2023-02-07T11:19:06.906Z,12.48
2023-02-07T11:21:33.449Z,11.60
2023-02-07T11:24:11.846Z,12.13
2023-02-07T11:26:56.181Z,11.60
2023-02-07T11:29:24.591Z,11.18
2023-02-07T11:31:54.262Z,11.55
2023-02-07T11:34:44.554Z,10.25
2023-02-07T11:37:18.702Z,9.98
2023-02-07T11:39:45.887Z,10.52
2023-02-07T11:42:22.115Z,10.43
2023-02-07T11:44:50.671Z,9.95
2023-02-07T11:47:28.323Z,10.73
2023-02-07T11:50:00.410Z,10.73
2023-02-07T11:52:27.567Z,9.63
2023-02-07T11:54:58.991Z,9.90
2023-02-07T11:57:29.983Z,8.90
2023-02-07T12:00:30.128Z,9.00
2023-02-07T12:03:03.692Z,8.82
2023-02-07T12:05:41.220Z,9.20
2023-02-07T12:08:20.616Z,10.05
2023-02-07T12:10:54.902Z,9.43
2023-02-07T12:13:27.080Z,9.65
2023-02-07T12:16:02.349Z,10.13
2023-02-07T12:18:35.555Z,10.15
2023-02-07T12:21:09.951Z,10.50
2023-02-07T12:23:49.096Z,10.02
2023-02-07T12:26:22.795Z,10.00
2023-02-07T12:29:13.457Z,9.65
2023-02-07T12:31:56.350Z,9.82
2023-02-07T12:34:41.038Z,9.15
2023-02-07T12:37:21.911Z,9.07
2023-02-07T12:40:24.885Z,9.27
2023-02-07T12:42:58.012Z,8.57
2023-02-07T12:45:43.553Z,8.93
2023-02-07T12:48:12.992Z,9.10
2023-02-07T12:50:39.747Z,8.00
2023-02-07T12:53:25.447Z,8.25
2023-02-07T12:56:19.943Z,8.45
2023-02-07T12:59:45.119Z,8.57
2023-02-07T13:02:29.526Z,7.10
2023-02-07T13:05:21.258Z,7.57
2023-02-07T13:08:12.654Z,7.53
2023-02-07T13:10:42.170Z,7.28
2023-02-07T13:13:15.623Z,7.63
2023-02-07T13:16:11.140Z,7.95
2023-02-07T13:18:49.783Z,7.78
2023-02-07T13:21:50.518Z,7.43
2023-02-07T13:24:21.778Z,8.07
2023-02-07T13:26:54.398Z,8.00
2023-02-07T13:29:23.724Z,8.77
2023-02-07T13:31:57.240Z,8.02
2023-02-07T13:34:40.399Z,9.23
2023-02-07T13:37:17.157Z,7.97
2023-02-07T13:39:46.714Z,8.70
2023-02-07T13:42:20.785Z,8.45
2023-02-07T13:44:56.313Z,8.60
2023-02-07T13:47:31.773Z,8.18
2023-02-07T13:52:53.057Z,8.25
2023-02-07T13:55:32.503Z,8.48
2023-02-07T13:58:18.920Z,7.78
2023-02-07T14:00:51.580Z,8.63
2023-02-07T14:03:23.988Z,8.80
2023-02-07T14:05:52.341Z,7.82
2023-02-07T14:08:24.941Z,7.32
2023-02-07T14:10:54.751Z,8.18
2023-02-07T14:13:27.096Z,8.02
2023-02-07T14:16:13.007Z,8.25
2023-02-07T14:18:51.569Z,7.22
2023-02-07T14:21:21.205Z,8.07
2023-02-07T14:24:03.667Z,7.97
2023-02-07T14:26:39.381Z,7.45
2023-02-07T14:29:52.281Z,7.35
2023-02-07T14:32:28.973Z,7.50
2023-02-07T14:35:04.939Z,6.90
2023-02-07T14:37:53.641Z,7.25
2023-02-07T14:40:31.272Z,7.88
2023-02-07T14:43:06.137Z,7.55
2023-02-07T14:45:36.743Z,8.00
2023-02-07T14:48:36.670Z,7.60
2023-02-07T14:51:06.650Z,7.28
2023-02-07T14:53:33.250Z,7.10
2023-02-07T14:56:04.516Z,7.78
2023-02-07T14:58:54.207Z,7.20
2023-02-07T15:01:21.584Z,7.63
2023-02-07T15:04:01.057Z,7.40
2023-02-07T15:06:32.652Z,7.20
2023-02-07T15:09:01.224Z,7.85
2023-02-07T15:11:34.796Z,7.05
2023-02-07T15:14:07.314Z,7.53
2023-02-07T15:16:40.141Z,7.90
2023-02-07T15:19:21.934Z,7.80
2023-02-07T15:21:51.463Z,7.47
2023-02-07T15:24:50.561Z,8.48
2023-02-07T15:27:24.959Z,8.55
2023-02-07T15:29:55.743Z,7.70
2023-02-07T15:32:30.688Z,8.30
2023-02-07T15:34:58.646Z,8.15
2023-02-07T15:37:26.443Z,8.20
2023-02-07T15:39:54.981Z,8.77
2023-02-07T15:42:22.096Z,8.73
2023-02-07T15:44:52.755Z,8.07
2023-02-07T15:47:28.226Z,8.75
2023-02-07T15:52:36.096Z,8.35
2023-02-07T15:55:13.655Z,7.90
2023-02-07T15:57:44.793Z,8.45
2023-02-07T16:00:26.347Z,8.85
2023-02-07T16:02:58.153Z,8.38
2023-02-07T16:05:30.745Z,8.20
2023-02-07T16:07:58.670Z,7.97
2023-02-07T16:10:39.452Z,8.00
2023-02-07T16:13:19.684Z,8.13
2023-02-07T16:16:19.727Z,8.27
2023-02-07T16:18:48.265Z,7.72
2023-02-07T16:21:30.061Z,8.35
2023-02-07T16:24:08.512Z,7.85
2023-02-07T16:26:36.371Z,8.15
2023-02-07T16:29:06.328Z,6.95
2023-02-07T16:31:33.586Z,7.32
2023-02-07T16:34:00.139Z,7.15
2023-02-07T16:36:28.090Z,7.32
2023-02-07T16:38:54.608Z,7.22
2023-02-07T16:41:24.793Z,8.10
2023-02-07T16:43:51.496Z,7.93
2023-02-07T16:46:22.104Z,7.80
2023-02-07T16:48:48.708Z,7.93
2023-02-07T16:51:16.908Z,7.78
2023-02-07T16:53:43.815Z,7.68
2023-02-07T16:56:13.932Z,7.85
2023-02-07T16:58:40.618Z,8.50
2023-02-07T17:01:07.156Z,7.70
2023-02-07T17:03:33.781Z,7.63
2023-02-07T17:06:00.311Z,7.93
2023-02-07T17:08:28.971Z,7.75
2023-02-07T17:11:01.291Z,7.70
2023-02-07T17:13:28.032Z,7.97
2023-02-07T17:15:54.708Z,7.97
2023-02-07T17:18:21.506Z,8.23
2023-02-07T17:20:48.107Z,8.18
2023-02-07T17:23:14.968Z,7.13
2023-02-07T17:25:42.663Z,8.55
2023-02-07T17:28:17.351Z,6.85
2023-02-07T17:30:44.096Z,8.07
2023-02-07T17:33:11.336Z,8.05
2023-02-07T17:35:38.772Z,7.68
2023-02-07T17:38:06.141Z,7.35
2023-02-07T17:40:38.933Z,7.55
2023-02-07T17:43:06.941Z,7.97
2023-02-07T17:45:36.135Z,8.13
2023-02-07T17:48:03.912Z,8.57
2023-02-07T17:50:41.285Z,8.38
2023-02-07T17:53:09.726Z,8.10
2023-02-07T17:55:37.474Z,7.68
2023-02-07T17:58:04.478Z,8.00
2023-02-07T18:00:40.023Z,7.57
2023-02-07T18:03:07.898Z,7.70
2023-02-07T18:05:34.555Z,7.78
2023-02-07T18:08:01.152Z,7.15
2023-02-07T18:10:31.367Z,7.60
2023-02-07T18:12:58.401Z,7.55
2023-02-07T18:15:25.645Z,8.38
2023-02-07T18:17:53.113Z,7.53
2023-02-07T18:20:22.292Z,7.40
2023-02-07T18:22:55.411Z,7.88
2023-02-07T18:25:24.427Z,7.78
2023-02-07T18:27:52.764Z,8.18
2023-02-07T18:30:21.732Z,8.23
2023-02-07T18:32:48.410Z,9.02
2023-02-07T18:35:16.022Z,9.25
2023-02-07T18:37:42.620Z,7.75
2023-02-07T18:40:13.134Z,7.65
2023-02-07T18:42:39.751Z,7.75
2023-02-07T18:45:07.115Z,8.07
2023-02-07T18:47:33.759Z,7.82
2023-02-07T18:50:00.731Z,8.57
2023-02-07T18:52:27.576Z,8.57
2023-02-07T18:54:54.142Z,8.85
2023-02-07T18:57:24.580Z,9.90
2023-02-07T18:59:51.165Z,9.02
2023-02-07T19:02:17.868Z,8.93
2023-02-07T19:04:44.470Z,8.85
2023-02-07T19:07:15.947Z,9.13
2023-02-07T19:09:42.889Z,8.70
2023-02-07T19:12:10.840Z,9.05
2023-02-07T19:14:37.629Z,8.85
2023-02-07T19:17:04.290Z,9.40
2023-02-07T19:19:31.810Z,9.75
2023-02-07T19:21:58.811Z,9.23
2023-02-07T19:24:25.631Z,9.90
2023-02-07T19:26:55.935Z,9.57
2023-02-07T19:29:29.674Z,8.90
2023-02-07T19:32:02.407Z,8.93
2023-02-07T19:34:29.322Z,9.70
2023-02-07T19:36:55.930Z,9.88
2023-02-07T19:39:22.488Z,9.90
2023-02-07T19:41:49.401Z,10.43
2023-02-07T19:44:17.110Z,10.45
2023-02-07T19:46:44.300Z,10.02
2023-02-07T19:49:13.737Z,9.43
2023-02-07T19:51:40.795Z,10.18
2023-02-07T19:54:07.761Z,9.50
2023-02-07T19:56:36.761Z,9.43
2023-02-07T19:59:06.468Z,9.85
2023-02-07T20:01:35.345Z,11.13
2023-02-07T20:04:02.138Z,9.27
2023-02-07T20:06:32.868Z,9.85
2023-02-07T20:09:01.474Z,9.63
2023-02-07T20:11:28.614Z,9.73
2023-02-07T20:13:58.373Z,9.52
2023-02-07T20:16:26.253Z,9.30
2023-02-07T20:18:53.601Z,10.55
2023-02-07T20:21:23.256Z,11.10
2023-02-07T20:23:55.187Z,9.95
2023-02-07T20:26:24.580Z,10.68
2023-02-07T20:28:51.314Z,10.25
2023-02-07T20:31:20.778Z,10.48
2023-02-07T20:33:47.699Z,11.43
2023-02-07T20:36:16.276Z,13.23
2023-02-07T20:38:45.771Z,12.02
2023-02-07T20:41:29.736Z,12.73
2023-02-07T20:44:04.639Z,12.75
2023-02-07T20:46:33.159Z,12.18
2023-02-07T20:49:10.659Z,11.90
2023-02-07T20:51:38.020Z,12.20
2023-02-07T20:54:06.460Z,11.68
2023-02-07T20:56:34.414Z,11.63
2023-02-07T20:59:01.015Z,12.93
2023-02-07T21:01:30.133Z,11.68
2023-02-07T21:03:59.068Z,12.30
2023-02-07T21:06:26.760Z,12.88
2023-02-07T21:09:00.274Z,12.80
2023-02-07T21:11:45.622Z,12.00
2023-02-07T21:14:19.492Z,11.93
2023-02-07T21:16:46.472Z,12.48
2023-02-07T21:19:16.794Z,12.70
2023-02-07T21:21:46.710Z,13.60
2023-02-07T21:24:14.629Z,14.63
2023-02-07T21:26:41.594Z,13.75
2023-02-07T21:29:08.520Z,12.68
2023-02-07T21:31:36.197Z,13.52
2023-02-07T21:34:04.038Z,13.15
2023-02-07T21:36:33.908Z,12.80
2023-02-07T21:39:06.919Z,13.70
2023-02-07T21:41:36.253Z,13.32
2023-02-07T21:44:02.968Z,13.40
2023-02-07T21:46:32.759Z,12.88
2023-02-07T21:49:05.844Z,13.13
2023-02-07T21:51:34.569Z,12.93
2023-02-07T21:54:03.240Z,13.95
2023-02-07T21:56:34.923Z,12.02
2023-02-07T21:59:04.647Z,11.90
2023-02-07T22:01:32.691Z,12.40
2023-02-07T22:04:01.860Z,10.73
2023-02-07T22:06:29.853Z,11.48
2023-02-07T22:08:59.663Z,11.52
2023-02-07T22:11:31.204Z,10.90
2023-02-07T22:13:58.136Z,11.48
2023-02-07T22:16:26.226Z,10.63
2023-02-07T22:18:54.468Z,10.82
2023-02-07T22:21:23.702Z,10.93
2023-02-07T22:23:50.878Z,10.18
2023-02-07T22:26:20.470Z,10.85
2023-02-07T22:28:47.730Z,10.75
2023-02-07T22:31:17.421Z,11.18
2023-02-07T22:33:44.051Z,11.48
2023-02-07T22:36:19.491Z,9.90
2023-02-07T22:41:13.047Z,10.55
2023-02-07T22:43:40.560Z,10.65
2023-02-07T22:46:09.591Z,10.80
2023-02-07T22:48:36.212Z,10.55
2023-02-07T22:51:19.539Z,11.05
2023-02-07T22:53:46.935Z,10.00
2023-02-07T22:56:13.726Z,10.43
2023-02-07T22:58:41.002Z,10.77
2023-02-07T23:01:17.372Z,9.15
2023-02-07T23:03:43.997Z,11.07
2023-02-07T23:06:10.695Z,10.38
2023-02-07T23:08:37.371Z,10.65
2023-02-07T23:11:07.960Z,10.35
2023-02-07T23:13:34.777Z,10.20
2023-02-07T23:16:03.678Z,10.45
2023-02-07T23:18:30.440Z,10.70
2023-02-07T23:20:57.069Z,10.63
2023-02-07T23:23:24.173Z,10.07
2023-02-07T23:25:50.760Z,11.32
2023-02-07T23:28:17.436Z,10.98
2023-02-07T23:30:44.321Z,10.20
2023-02-07T23:33:11.136Z,9.90
2023-02-07T23:35:37.691Z,10.85
2023-02-07T23:38:04.526Z,10.48
2023-02-07T23:40:31.473Z,11.57
2023-02-07T23:42:58.035Z,11.02
2023-02-07T23:45:25.152Z,9.90
2023-02-07T23:47:51.754Z,10.57
2023-02-07T23:50:18.577Z,9.95
2023-02-07T23:52:45.327Z,10.43
2023-02-07T23:55:11.987Z,10.57
2023-02-07T23:57:38.633Z,9.75
